sensor_id;sensor_type;location;lat;lon;timestamp;temperature;humidity
4530;DHT22;2277;51.626;7.516;2023-09-19T00:00:20;18.70;99.90
4530;DHT22;2277;51.626;7.516;2023-09-19T00:02:58;18.70;99.90
4530;DHT22;2277;51.626;7.516;2023-09-19T00:05:33;18.70;99.90
4530;DHT22;2277;51.626;7.516;2023-09-19T00:08:00;18.80;99.90
4530;DHT22;2277;51.626;7.516;2023-09-19T00:10:27;18.80;99.90
4530;DHT22;2277;51.626;7.516;2023-09-19T00:12:57;18.80;99.90
4530;DHT22;2277;51.626;7.516;2023-09-19T00:15:26;18.80;99.90
4530;DHT22;2277;51.626;7.516;2023-09-19T00:17:54;18.80;99.90
4530;DHT22;2277;51.626;7.516;2023-09-19T00:20:21;18.80;99.90
4530;DHT22;2277;51.626;7.516;2023-09-19T00:22:50;18.80;99.90
4530;DHT22;2277;51.626;7.516;2023-09-19T00:25:19;18.80;99.90
4530;DHT22;2277;51.626;7.516;2023-09-19T00:27:45;18.80;99.90
4530;DHT22;2277;51.626;7.516;2023-09-19T00:30:17;18.70;99.90
4530;DHT22;2277;51.626;7.516;2023-09-19T00:32:47;18.60;99.90
4530;DHT22;2277;51.626;7.516;2023-09-19T00:35:13;18.60;99.90
4530;DHT22;2277;51.626;7.516;2023-09-19T00:37:40;18.50;99.90
4530;DHT22;2277;51.626;7.516;2023-09-19T00:40:09;18.50;99.90
4530;DHT22;2277;51.626;7.516;2023-09-19T00:42:44;18.40;99.90
4530;DHT22;2277;51.626;7.516;2023-09-19T00:45:11;18.40;99.90
4530;DHT22;2277;51.626;7.516;2023-09-19T00:47:48;18.30;99.90
4530;DHT22;2277;51.626;7.516;2023-09-19T00:50:16;18.20;99.90
4530;DHT22;2277;51.626;7.516;2023-09-19T00:52:43;18.20;99.90
4530;DHT22;2277;51.626;7.516;2023-09-19T00:55:10;18.20;99.90
4530;DHT22;2277;51.626;7.516;2023-09-19T00:57:37;18.20;99.90
4530;DHT22;2277;51.626;7.516;2023-09-19T01:00:07;18.20;99.90
4530;DHT22;2277;51.626;7.516;2023-09-19T01:02:35;18.20;99.90
4530;DHT22;2277;51.626;7.516;2023-09-19T01:05:01;18.10;99.90
4530;DHT22;2277;51.626;7.516;2023-09-19T01:07:29;18.10;99.90
4530;DHT22;2277;51.626;7.516;2023-09-19T01:10:17;18.10;99.90
4530;DHT22;2277;51.626;7.516;2023-09-19T01:21:30;17.90;99.90
4530;DHT22;2277;51.626;7.516;2023-09-19T01:32:03;17.80;99.90
4530;DHT22;2277;51.626;7.516;2023-09-19T01:37:16;17.90;99.90
4530;DHT22;2277;51.626;7.516;2023-09-19T01:39:59;17.90;99.90
4530;DHT22;2277;51.626;7.516;2023-09-19T01:42:41;17.90;99.90
4530;DHT22;2277;51.626;7.516;2023-09-19T01:51:08;17.90;99.90
4530;DHT22;2277;51.626;7.516;2023-09-19T01:53:56;18.00;99.90
4530;DHT22;2277;51.626;7.516;2023-09-19T01:56:42;18.00;99.90
4530;DHT22;2277;51.626;7.516;2023-09-19T01:59:13;18.00;99.90
4530;DHT22;2277;51.626;7.516;2023-09-19T02:01:42;17.90;99.90
4530;DHT22;2277;51.626;7.516;2023-09-19T02:04:10;17.90;99.90
4530;DHT22;2277;51.626;7.516;2023-09-19T02:06:40;17.80;99.90
4530;DHT22;2277;51.626;7.516;2023-09-19T02:09:06;17.80;99.90
4530;DHT22;2277;51.626;7.516;2023-09-19T02:11:32;17.80;99.90
4530;DHT22;2277;51.626;7.516;2023-09-19T02:13:58;17.80;99.90
4530;DHT22;2277;51.626;7.516;2023-09-19T02:16:24;17.70;99.90
4530;DHT22;2277;51.626;7.516;2023-09-19T02:18:51;17.70;99.90
4530;DHT22;2277;51.626;7.516;2023-09-19T02:21:17;17.60;99.90
4530;DHT22;2277;51.626;7.516;2023-09-19T02:23:44;17.60;99.90
4530;DHT22;2277;51.626;7.516;2023-09-19T02:26:09;17.60;99.90
4530;DHT22;2277;51.626;7.516;2023-09-19T02:28:37;17.50;99.90
4530;DHT22;2277;51.626;7.516;2023-09-19T02:31:03;17.50;99.90
4530;DHT22;2277;51.626;7.516;2023-09-19T02:33:31;17.40;99.90
4530;DHT22;2277;51.626;7.516;2023-09-19T02:35:58;17.50;99.90
4530;DHT22;2277;51.626;7.516;2023-09-19T02:38:24;17.50;99.90
4530;DHT22;2277;51.626;7.516;2023-09-19T02:40:51;17.50;99.90
4530;DHT22;2277;51.626;7.516;2023-09-19T02:43:17;17.60;99.90
4530;DHT22;2277;51.626;7.516;2023-09-19T02:45:45;17.60;99.90
4530;DHT22;2277;51.626;7.516;2023-09-19T02:48:12;17.60;99.90
4530;DHT22;2277;51.626;7.516;2023-09-19T02:50:37;17.50;99.90
4530;DHT22;2277;51.626;7.516;2023-09-19T02:53:04;17.50;99.90
4530;DHT22;2277;51.626;7.516;2023-09-19T02:55:30;17.50;99.90
4530;DHT22;2277;51.626;7.516;2023-09-19T02:57:57;17.40;99.90
4530;DHT22;2277;51.626;7.516;2023-09-19T03:00:23;17.40;99.90
4530;DHT22;2277;51.626;7.516;2023-09-19T03:02:54;17.40;99.90
4530;DHT22;2277;51.626;7.516;2023-09-19T03:05:21;17.40;99.90
4530;DHT22;2277;51.626;7.516;2023-09-19T03:07:47;17.40;99.90
4530;DHT22;2277;51.626;7.516;2023-09-19T03:10:16;17.40;99.90
4530;DHT22;2277;51.626;7.516;2023-09-19T03:12:42;17.40;99.90
4530;DHT22;2277;51.626;7.516;2023-09-19T03:15:08;17.40;99.90
4530;DHT22;2277;51.626;7.516;2023-09-19T03:17:34;17.40;99.90
4530;DHT22;2277;51.626;7.516;2023-09-19T03:20:00;17.40;99.90
4530;DHT22;2277;51.626;7.516;2023-09-19T03:22:27;17.30;99.90
4530;DHT22;2277;51.626;7.516;2023-09-19T03:24:53;17.20;99.90
4530;DHT22;2277;51.626;7.516;2023-09-19T03:27:19;17.20;99.90
4530;DHT22;2277;51.626;7.516;2023-09-19T03:29:46;17.30;99.90
4530;DHT22;2277;51.626;7.516;2023-09-19T03:32:12;17.20;99.90
4530;DHT22;2277;51.626;7.516;2023-09-19T03:34:38;17.20;99.90
4530;DHT22;2277;51.626;7.516;2023-09-19T03:37:09;17.20;99.90
4530;DHT22;2277;51.626;7.516;2023-09-19T03:39:35;17.10;99.90
4530;DHT22;2277;51.626;7.516;2023-09-19T03:42:01;17.10;99.90
4530;DHT22;2277;51.626;7.516;2023-09-19T03:44:29;17.10;99.90
4530;DHT22;2277;51.626;7.516;2023-09-19T03:46:55;17.10;99.90
4530;DHT22;2277;51.626;7.516;2023-09-19T03:49:22;17.20;99.90
4530;DHT22;2277;51.626;7.516;2023-09-19T03:51:47;17.20;99.90
4530;DHT22;2277;51.626;7.516;2023-09-19T03:54:13;17.20;99.90
4530;DHT22;2277;51.626;7.516;2023-09-19T03:56:38;17.20;99.90
4530;DHT22;2277;51.626;7.516;2023-09-19T03:59:04;17.10;99.90
4530;DHT22;2277;51.626;7.516;2023-09-19T04:01:30;17.10;99.90
4530;DHT22;2277;51.626;7.516;2023-09-19T04:03:57;17.00;99.90
4530;DHT22;2277;51.626;7.516;2023-09-19T04:06:23;17.00;99.90
4530;DHT22;2277;51.626;7.516;2023-09-19T04:08:48;17.00;99.90
4530;DHT22;2277;51.626;7.516;2023-09-19T04:11:14;16.90;99.90
4530;DHT22;2277;51.626;7.516;2023-09-19T04:13:40;16.90;99.90
4530;DHT22;2277;51.626;7.516;2023-09-19T04:16:05;16.90;99.90
4530;DHT22;2277;51.626;7.516;2023-09-19T04:18:32;16.90;99.90
4530;DHT22;2277;51.626;7.516;2023-09-19T04:20:59;16.90;99.90
4530;DHT22;2277;51.626;7.516;2023-09-19T04:23:28;16.90;99.90
4530;DHT22;2277;51.626;7.516;2023-09-19T04:25:53;16.80;99.90
4530;DHT22;2277;51.626;7.516;2023-09-19T04:28:19;16.80;99.90
4530;DHT22;2277;51.626;7.516;2023-09-19T04:30:44;16.90;99.90
4530;DHT22;2277;51.626;7.516;2023-09-19T04:33:10;16.80;99.90
4530;DHT22;2277;51.626;7.516;2023-09-19T04:35:37;16.80;99.90
4530;DHT22;2277;51.626;7.516;2023-09-19T04:38:04;16.70;99.90
4530;DHT22;2277;51.626;7.516;2023-09-19T04:40:32;16.70;99.90
4530;DHT22;2277;51.626;7.516;2023-09-19T04:42:59;16.70;99.90
4530;DHT22;2277;51.626;7.516;2023-09-19T04:45:27;16.70;99.90
4530;DHT22;2277;51.626;7.516;2023-09-19T04:47:53;16.70;99.90
4530;DHT22;2277;51.626;7.516;2023-09-19T04:50:19;16.70;99.90
4530;DHT22;2277;51.626;7.516;2023-09-19T04:52:49;16.60;99.90
4530;DHT22;2277;51.626;7.516;2023-09-19T04:55:19;16.60;99.90
4530;DHT22;2277;51.626;7.516;2023-09-19T04:57:49;16.60;99.90
4530;DHT22;2277;51.626;7.516;2023-09-19T05:00:16;16.60;99.90
4530;DHT22;2277;51.626;7.516;2023-09-19T05:02:45;16.50;99.90
4530;DHT22;2277;51.626;7.516;2023-09-19T05:05:11;16.60;99.90
4530;DHT22;2277;51.626;7.516;2023-09-19T05:07:39;16.50;99.90
4530;DHT22;2277;51.626;7.516;2023-09-19T05:10:05;16.60;99.90
4530;DHT22;2277;51.626;7.516;2023-09-19T05:12:34;16.60;99.90
4530;DHT22;2277;51.626;7.516;2023-09-19T05:15:03;16.60;99.90
4530;DHT22;2277;51.626;7.516;2023-09-19T05:17:30;16.60;99.90
4530;DHT22;2277;51.626;7.516;2023-09-19T05:19:57;16.60;99.90
4530;DHT22;2277;51.626;7.516;2023-09-19T05:22:23;16.50;99.90
4530;DHT22;2277;51.626;7.516;2023-09-19T05:24:50;16.50;99.90
4530;DHT22;2277;51.626;7.516;2023-09-19T05:27:16;16.40;99.90
4530;DHT22;2277;51.626;7.516;2023-09-19T05:29:45;16.50;99.90
4530;DHT22;2277;51.626;7.516;2023-09-19T05:32:11;16.40;99.90
4530;DHT22;2277;51.626;7.516;2023-09-19T05:34:37;16.50;99.90
4530;DHT22;2277;51.626;7.516;2023-09-19T05:37:03;16.50;99.90
4530;DHT22;2277;51.626;7.516;2023-09-19T05:39:30;16.60;99.90
4530;DHT22;2277;51.626;7.516;2023-09-19T05:41:56;16.70;99.90
4530;DHT22;2277;51.626;7.516;2023-09-19T05:44:22;16.70;99.90
4530;DHT22;2277;51.626;7.516;2023-09-19T05:46:48;16.60;99.90
4530;DHT22;2277;51.626;7.516;2023-09-19T05:49:14;16.70;99.90
4530;DHT22;2277;51.626;7.516;2023-09-19T05:51:41;16.70;99.90
4530;DHT22;2277;51.626;7.516;2023-09-19T05:54:06;16.60;99.90
4530;DHT22;2277;51.626;7.516;2023-09-19T05:56:32;16.60;99.90
4530;DHT22;2277;51.626;7.516;2023-09-19T05:58:57;16.60;99.90
4530;DHT22;2277;51.626;7.516;2023-09-19T06:01:23;16.60;99.90
4530;DHT22;2277;51.626;7.516;2023-09-19T06:03:48;16.60;99.90
4530;DHT22;2277;51.626;7.516;2023-09-19T06:06:14;16.50;99.90
4530;DHT22;2277;51.626;7.516;2023-09-19T06:08:40;16.50;99.90
4530;DHT22;2277;51.626;7.516;2023-09-19T06:11:05;16.60;99.90
4530;DHT22;2277;51.626;7.516;2023-09-19T06:13:34;16.60;99.90
4530;DHT22;2277;51.626;7.516;2023-09-19T06:16:01;16.60;99.90
4530;DHT22;2277;51.626;7.516;2023-09-19T06:18:31;16.50;99.90
4530;DHT22;2277;51.626;7.516;2023-09-19T06:20:59;16.50;99.90
4530;DHT22;2277;51.626;7.516;2023-09-19T06:23:25;16.50;99.90
4530;DHT22;2277;51.626;7.516;2023-09-19T06:25:52;16.60;99.90
4530;DHT22;2277;51.626;7.516;2023-09-19T06:28:18;16.50;99.90
4530;DHT22;2277;51.626;7.516;2023-09-19T06:30:49;16.60;99.90
4530;DHT22;2277;51.626;7.516;2023-09-19T06:33:14;16.60;99.90
4530;DHT22;2277;51.626;7.516;2023-09-19T06:35:40;16.60;99.90
4530;DHT22;2277;51.626;7.516;2023-09-19T06:38:07;16.70;99.90
4530;DHT22;2277;51.626;7.516;2023-09-19T06:40:34;16.70;99.90
4530;DHT22;2277;51.626;7.516;2023-09-19T06:43:00;16.70;99.90
4530;DHT22;2277;51.626;7.516;2023-09-19T06:45:27;16.70;99.90
4530;DHT22;2277;51.626;7.516;2023-09-19T06:47:53;16.80;99.90
4530;DHT22;2277;51.626;7.516;2023-09-19T06:50:21;16.80;99.90
4530;DHT22;2277;51.626;7.516;2023-09-19T06:52:54;16.80;99.90
4530;DHT22;2277;51.626;7.516;2023-09-19T06:55:21;16.80;99.90
4530;DHT22;2277;51.626;7.516;2023-09-19T06:57:49;16.80;99.90
4530;DHT22;2277;51.626;7.516;2023-09-19T07:00:15;16.80;99.90
4530;DHT22;2277;51.626;7.516;2023-09-19T07:03:05;16.80;99.90
4530;DHT22;2277;51.626;7.516;2023-09-19T07:05:37;16.90;99.90
4530;DHT22;2277;51.626;7.516;2023-09-19T07:08:08;16.90;99.90
4530;DHT22;2277;51.626;7.516;2023-09-19T07:10:36;16.90;99.90
4530;DHT22;2277;51.626;7.516;2023-09-19T07:13:03;16.90;99.90
4530;DHT22;2277;51.626;7.516;2023-09-19T07:15:32;16.90;99.90
4530;DHT22;2277;51.626;7.516;2023-09-19T07:17:58;17.10;99.90
4530;DHT22;2277;51.626;7.516;2023-09-19T07:20:26;17.20;99.90
4530;DHT22;2277;51.626;7.516;2023-09-19T07:22:52;17.20;99.90
4530;DHT22;2277;51.626;7.516;2023-09-19T07:25:20;17.20;99.90
4530;DHT22;2277;51.626;7.516;2023-09-19T07:27:46;17.30;99.90
4530;DHT22;2277;51.626;7.516;2023-09-19T07:30:11;17.30;99.90
4530;DHT22;2277;51.626;7.516;2023-09-19T07:32:37;17.40;99.90
4530;DHT22;2277;51.626;7.516;2023-09-19T07:35:04;17.40;99.90
4530;DHT22;2277;51.626;7.516;2023-09-19T07:37:31;17.40;99.90
4530;DHT22;2277;51.626;7.516;2023-09-19T07:39:59;17.40;99.90
4530;DHT22;2277;51.626;7.516;2023-09-19T07:42:26;17.50;99.90
4530;DHT22;2277;51.626;7.516;2023-09-19T07:44:52;17.50;99.90
4530;DHT22;2277;51.626;7.516;2023-09-19T07:47:19;17.50;99.90
4530;DHT22;2277;51.626;7.516;2023-09-19T07:49:49;17.50;99.90
4530;DHT22;2277;51.626;7.516;2023-09-19T07:52:15;17.50;99.90
4530;DHT22;2277;51.626;7.516;2023-09-19T07:54:41;17.60;99.90
4530;DHT22;2277;51.626;7.516;2023-09-19T07:57:09;17.70;99.90
4530;DHT22;2277;51.626;7.516;2023-09-19T07:59:36;17.70;99.90
4530;DHT22;2277;51.626;7.516;2023-09-19T08:02:04;17.80;99.90
4530;DHT22;2277;51.626;7.516;2023-09-19T08:04:30;17.80;99.90
4530;DHT22;2277;51.626;7.516;2023-09-19T08:06:58;17.80;99.90
4530;DHT22;2277;51.626;7.516;2023-09-19T08:09:24;17.90;99.90
4530;DHT22;2277;51.626;7.516;2023-09-19T08:11:50;17.90;99.90
4530;DHT22;2277;51.626;7.516;2023-09-19T08:14:16;17.90;99.90
4530;DHT22;2277;51.626;7.516;2023-09-19T08:16:41;18.00;99.90
4530;DHT22;2277;51.626;7.516;2023-09-19T08:19:09;18.20;99.90
4530;DHT22;2277;51.626;7.516;2023-09-19T08:21:36;18.20;99.90
4530;DHT22;2277;51.626;7.516;2023-09-19T08:24:02;18.20;99.90
4530;DHT22;2277;51.626;7.516;2023-09-19T08:26:31;18.20;99.90
4530;DHT22;2277;51.626;7.516;2023-09-19T08:28:57;18.10;99.90
4530;DHT22;2277;51.626;7.516;2023-09-19T08:31:22;18.20;99.90
4530;DHT22;2277;51.626;7.516;2023-09-19T08:33:49;18.20;99.90
4530;DHT22;2277;51.626;7.516;2023-09-19T08:36:16;18.20;99.90
4530;DHT22;2277;51.626;7.516;2023-09-19T08:38:42;18.30;99.90
4530;DHT22;2277;51.626;7.516;2023-09-19T08:41:08;18.40;99.90
4530;DHT22;2277;51.626;7.516;2023-09-19T08:43:34;18.40;99.90
4530;DHT22;2277;51.626;7.516;2023-09-19T08:46:20;18.60;99.90
4530;DHT22;2277;51.626;7.516;2023-09-19T08:49:05;18.60;99.90
4530;DHT22;2277;51.626;7.516;2023-09-19T08:51:43;18.60;99.90
4530;DHT22;2277;51.626;7.516;2023-09-19T08:56:46;18.70;99.90
4530;DHT22;2277;51.626;7.516;2023-09-19T08:59:13;18.70;99.90
4530;DHT22;2277;51.626;7.516;2023-09-19T09:01:40;18.60;99.90
4530;DHT22;2277;51.626;7.516;2023-09-19T09:04:09;18.70;99.90
4530;DHT22;2277;51.626;7.516;2023-09-19T09:06:38;18.80;99.90
4530;DHT22;2277;51.626;7.516;2023-09-19T09:09:05;18.80;99.90
4530;DHT22;2277;51.626;7.516;2023-09-19T09:11:34;18.90;99.90
4530;DHT22;2277;51.626;7.516;2023-09-19T09:13:59;19.10;99.90
4530;DHT22;2277;51.626;7.516;2023-09-19T09:16:25;19.20;99.90
4530;DHT22;2277;51.626;7.516;2023-09-19T09:18:51;19.20;99.90
4530;DHT22;2277;51.626;7.516;2023-09-19T09:21:20;19.20;99.90
4530;DHT22;2277;51.626;7.516;2023-09-19T09:23:47;19.20;99.90
4530;DHT22;2277;51.626;7.516;2023-09-19T09:26:13;19.10;99.90
4530;DHT22;2277;51.626;7.516;2023-09-19T09:28:44;19.20;99.90
4530;DHT22;2277;51.626;7.516;2023-09-19T09:31:22;19.30;99.90
4530;DHT22;2277;51.626;7.516;2023-09-19T09:33:55;19.40;99.90
4530;DHT22;2277;51.626;7.516;2023-09-19T09:36:38;19.60;99.90
4530;DHT22;2277;51.626;7.516;2023-09-19T09:39:04;19.80;99.90
4530;DHT22;2277;51.626;7.516;2023-09-19T09:41:41;19.90;99.90
4530;DHT22;2277;51.626;7.516;2023-09-19T09:44:18;19.90;99.90
4530;DHT22;2277;51.626;7.516;2023-09-19T09:46:45;20.00;99.90
4530;DHT22;2277;51.626;7.516;2023-09-19T09:49:24;20.20;99.90
4530;DHT22;2277;51.626;7.516;2023-09-19T09:52:03;20.30;99.90
4530;DHT22;2277;51.626;7.516;2023-09-19T09:55:01;20.30;99.90
4530;DHT22;2277;51.626;7.516;2023-09-19T09:57:30;20.50;99.90
4530;DHT22;2277;51.626;7.516;2023-09-19T09:59:57;20.70;99.90
4530;DHT22;2277;51.626;7.516;2023-09-19T10:02:35;20.80;99.90
4530;DHT22;2277;51.626;7.516;2023-09-19T10:05:19;20.80;99.90
4530;DHT22;2277;51.626;7.516;2023-09-19T10:07:49;21.00;99.90
4530;DHT22;2277;51.626;7.516;2023-09-19T10:10:35;21.20;99.90
4530;DHT22;2277;51.626;7.516;2023-09-19T10:13:13;21.30;99.90
4530;DHT22;2277;51.626;7.516;2023-09-19T10:15:46;21.40;99.90
4530;DHT22;2277;51.626;7.516;2023-09-19T10:18:20;21.40;99.90
4530;DHT22;2277;51.626;7.516;2023-09-19T10:20:46;21.50;99.90
4530;DHT22;2277;51.626;7.516;2023-09-19T10:23:15;21.60;99.90
4530;DHT22;2277;51.626;7.516;2023-09-19T10:25:48;21.80;99.90
4530;DHT22;2277;51.626;7.516;2023-09-19T10:28:16;21.80;99.90
4530;DHT22;2277;51.626;7.516;2023-09-19T10:30:46;21.80;99.90
4530;DHT22;2277;51.626;7.516;2023-09-19T10:33:14;22.10;99.90
4530;DHT22;2277;51.626;7.516;2023-09-19T10:35:43;22.20;99.90
4530;DHT22;2277;51.626;7.516;2023-09-19T10:38:18;22.40;99.90
4530;DHT22;2277;51.626;7.516;2023-09-19T10:40:44;22.40;99.90
4530;DHT22;2277;51.626;7.516;2023-09-19T10:43:16;22.30;99.90
4530;DHT22;2277;51.626;7.516;2023-09-19T10:45:47;22.30;99.90
4530;DHT22;2277;51.626;7.516;2023-09-19T10:48:16;22.40;99.90
4530;DHT22;2277;51.626;7.516;2023-09-19T10:50:48;22.60;99.90
4530;DHT22;2277;51.626;7.516;2023-09-19T10:53:17;22.70;99.90
4530;DHT22;2277;51.626;7.516;2023-09-19T10:55:53;22.80;99.90
4530;DHT22;2277;51.626;7.516;2023-09-19T10:58:28;23.00;99.90
4530;DHT22;2277;51.626;7.516;2023-09-19T11:01:00;23.10;99.90
4530;DHT22;2277;51.626;7.516;2023-09-19T11:03:33;23.20;99.90
4530;DHT22;2277;51.626;7.516;2023-09-19T11:06:08;23.10;99.90
4530;DHT22;2277;51.626;7.516;2023-09-19T11:09:00;23.20;99.90
4530;DHT22;2277;51.626;7.516;2023-09-19T11:11:45;23.30;99.90
4530;DHT22;2277;51.626;7.516;2023-09-19T11:30:35;23.30;99.90
4530;DHT22;2277;51.626;7.516;2023-09-19T11:33:28;23.40;99.90
4530;DHT22;2277;51.626;7.516;2023-09-19T11:36:09;23.60;99.90
4530;DHT22;2277;51.626;7.516;2023-09-19T11:43:47;24.00;99.90
4530;DHT22;2277;51.626;7.516;2023-09-19T11:46:13;23.90;99.90
4530;DHT22;2277;51.626;7.516;2023-09-19T11:48:42;23.80;99.90
4530;DHT22;2277;51.626;7.516;2023-09-19T11:51:11;23.90;99.90
4530;DHT22;2277;51.626;7.516;2023-09-19T11:53:48;23.90;99.90
4530;DHT22;2277;51.626;7.516;2023-09-19T11:56:22;23.90;99.90
4530;DHT22;2277;51.626;7.516;2023-09-19T11:58:51;23.90;99.90
4530;DHT22;2277;51.626;7.516;2023-09-19T12:01:22;23.80;99.90
4530;DHT22;2277;51.626;7.516;2023-09-19T12:03:53;23.60;99.90
4530;DHT22;2277;51.626;7.516;2023-09-19T12:06:19;23.60;99.90
4530;DHT22;2277;51.626;7.516;2023-09-19T12:08:47;23.70;99.90
4530;DHT22;2277;51.626;7.516;2023-09-19T12:11:15;23.60;99.90
4530;DHT22;2277;51.626;7.516;2023-09-19T12:13:43;23.60;99.90
4530;DHT22;2277;51.626;7.516;2023-09-19T12:16:17;23.50;99.90
4530;DHT22;2277;51.626;7.516;2023-09-19T12:18:44;23.50;99.90
4530;DHT22;2277;51.626;7.516;2023-09-19T12:21:30;23.60;99.90
4530;DHT22;2277;51.626;7.516;2023-09-19T12:24:11;23.80;99.90
4530;DHT22;2277;51.626;7.516;2023-09-19T12:26:43;23.70;99.90
4530;DHT22;2277;51.626;7.516;2023-09-19T12:29:21;23.70;99.90
4530;DHT22;2277;51.626;7.516;2023-09-19T12:31:54;23.80;99.90
4530;DHT22;2277;51.626;7.516;2023-09-19T12:34:27;23.80;99.90
4530;DHT22;2277;51.626;7.516;2023-09-19T12:37:13;23.80;99.90
4530;DHT22;2277;51.626;7.516;2023-09-19T12:39:50;23.90;99.90
4530;DHT22;2277;51.626;7.516;2023-09-19T12:42:21;24.00;99.90
4530;DHT22;2277;51.626;7.516;2023-09-19T12:44:51;23.90;99.90
4530;DHT22;2277;51.626;7.516;2023-09-19T12:47:27;24.10;99.90
4530;DHT22;2277;51.626;7.516;2023-09-19T12:50:15;24.20;99.90
4530;DHT22;2277;51.626;7.516;2023-09-19T12:52:47;24.40;99.90
4530;DHT22;2277;51.626;7.516;2023-09-19T12:55:21;24.50;99.90
4530;DHT22;2277;51.626;7.516;2023-09-19T12:58:08;24.60;99.90
4530;DHT22;2277;51.626;7.516;2023-09-19T13:00:42;24.60;99.90
4530;DHT22;2277;51.626;7.516;2023-09-19T13:03:28;24.60;99.90
4530;DHT22;2277;51.626;7.516;2023-09-19T13:06:01;24.70;99.90
4530;DHT22;2277;51.626;7.516;2023-09-19T13:08:30;24.80;99.90
4530;DHT22;2277;51.626;7.516;2023-09-19T13:11:17;24.90;99.90
4530;DHT22;2277;51.626;7.516;2023-09-19T13:14:26;24.90;99.90
4530;DHT22;2277;51.626;7.516;2023-09-19T13:17:02;25.10;99.90
4530;DHT22;2277;51.626;7.516;2023-09-19T13:22:35;25.30;99.90
4530;DHT22;2277;51.626;7.516;2023-09-19T13:24:50;25.20;99.80
4530;DHT22;2277;51.626;7.516;2023-09-19T13:27:17;25.30;99.90
4530;DHT22;2277;51.626;7.516;2023-09-19T13:29:42;25.40;98.90
4530;DHT22;2277;51.626;7.516;2023-09-19T13:32:08;25.20;99.10
4530;DHT22;2277;51.626;7.516;2023-09-19T13:34:36;25.20;98.30
4530;DHT22;2277;51.626;7.516;2023-09-19T13:37:03;25.00;98.30
4530;DHT22;2277;51.626;7.516;2023-09-19T13:39:30;25.10;98.70
4530;DHT22;2277;51.626;7.516;2023-09-19T13:41:55;25.30;99.00
4530;DHT22;2277;51.626;7.516;2023-09-19T13:44:21;25.30;98.10
4530;DHT22;2277;51.626;7.516;2023-09-19T13:46:46;25.30;97.80
4530;DHT22;2277;51.626;7.516;2023-09-19T13:49:12;25.40;97.70
4530;DHT22;2277;51.626;7.516;2023-09-19T13:51:38;25.30;98.00
4530;DHT22;2277;51.626;7.516;2023-09-19T13:54:04;25.40;97.40
4530;DHT22;2277;51.626;7.516;2023-09-19T13:56:29;25.10;96.80
4530;DHT22;2277;51.626;7.516;2023-09-19T13:58:56;25.10;98.80
4530;DHT22;2277;51.626;7.516;2023-09-19T14:01:22;25.30;96.90
4530;DHT22;2277;51.626;7.516;2023-09-19T14:03:47;25.20;96.20
4530;DHT22;2277;51.626;7.516;2023-09-19T14:06:15;25.20;96.80
4530;DHT22;2277;51.626;7.516;2023-09-19T14:08:41;25.10;96.90
4530;DHT22;2277;51.626;7.516;2023-09-19T14:11:08;24.90;97.20
4530;DHT22;2277;51.626;7.516;2023-09-19T14:13:33;24.90;97.30
4530;DHT22;2277;51.626;7.516;2023-09-19T14:16:06;24.90;97.60
4530;DHT22;2277;51.626;7.516;2023-09-19T14:18:32;24.80;97.20
4530;DHT22;2277;51.626;7.516;2023-09-19T14:20:58;24.40;97.70
4530;DHT22;2277;51.626;7.516;2023-09-19T14:23:28;24.20;98.50
4530;DHT22;2277;51.626;7.516;2023-09-19T14:25:54;24.10;98.90
4530;DHT22;2277;51.626;7.516;2023-09-19T14:28:20;23.90;99.20
4530;DHT22;2277;51.626;7.516;2023-09-19T14:30:45;23.60;99.30
4530;DHT22;2277;51.626;7.516;2023-09-19T14:33:12;23.50;99.90
4530;DHT22;2277;51.626;7.516;2023-09-19T14:35:37;23.30;99.90
4530;DHT22;2277;51.626;7.516;2023-09-19T14:38:04;23.20;99.90
4530;DHT22;2277;51.626;7.516;2023-09-19T14:40:29;23.20;99.90
4530;DHT22;2277;51.626;7.516;2023-09-19T14:42:56;23.00;99.90
4530;DHT22;2277;51.626;7.516;2023-09-19T14:45:22;22.80;99.90
4530;DHT22;2277;51.626;7.516;2023-09-19T14:47:50;22.80;99.90
4530;DHT22;2277;51.626;7.516;2023-09-19T14:50:17;22.80;99.90
4530;DHT22;2277;51.626;7.516;2023-09-19T14:52:42;22.90;99.90
4530;DHT22;2277;51.626;7.516;2023-09-19T14:55:09;22.90;99.90
4530;DHT22;2277;51.626;7.516;2023-09-19T14:57:39;22.80;99.90
4530;DHT22;2277;51.626;7.516;2023-09-19T15:00:06;22.70;99.90
4530;DHT22;2277;51.626;7.516;2023-09-19T15:02:38;22.70;99.90
4530;DHT22;2277;51.626;7.516;2023-09-19T15:05:06;22.50;99.90
4530;DHT22;2277;51.626;7.516;2023-09-19T15:07:36;22.50;99.90
4530;DHT22;2277;51.626;7.516;2023-09-19T15:10:04;22.50;99.90
4530;DHT22;2277;51.626;7.516;2023-09-19T15:12:32;22.50;99.90
4530;DHT22;2277;51.626;7.516;2023-09-19T15:14:58;22.50;99.90
4530;DHT22;2277;51.626;7.516;2023-09-19T15:17:24;22.50;99.90
4530;DHT22;2277;51.626;7.516;2023-09-19T15:19:50;22.50;99.90
4530;DHT22;2277;51.626;7.516;2023-09-19T15:22:16;22.40;99.90
4530;DHT22;2277;51.626;7.516;2023-09-19T15:24:42;22.40;99.90
4530;DHT22;2277;51.626;7.516;2023-09-19T15:27:07;22.40;99.90
4530;DHT22;2277;51.626;7.516;2023-09-19T15:29:33;22.40;99.90
4530;DHT22;2277;51.626;7.516;2023-09-19T15:31:59;22.20;99.90
4530;DHT22;2277;51.626;7.516;2023-09-19T15:34:28;22.20;99.90
4530;DHT22;2277;51.626;7.516;2023-09-19T15:36:54;22.10;99.90
4530;DHT22;2277;51.626;7.516;2023-09-19T15:39:20;22.10;99.90
4530;DHT22;2277;51.626;7.516;2023-09-19T15:41:48;22.10;99.90
4530;DHT22;2277;51.626;7.516;2023-09-19T15:44:18;22.10;99.90
4530;DHT22;2277;51.626;7.516;2023-09-19T15:46:44;22.10;99.90
4530;DHT22;2277;51.626;7.516;2023-09-19T15:49:11;22.10;99.90
4530;DHT22;2277;51.626;7.516;2023-09-19T15:51:37;22.10;99.90
4530;DHT22;2277;51.626;7.516;2023-09-19T15:54:13;22.00;99.90
4530;DHT22;2277;51.626;7.516;2023-09-19T15:56:40;22.00;99.90
4530;DHT22;2277;51.626;7.516;2023-09-19T15:59:09;21.90;99.90
4530;DHT22;2277;51.626;7.516;2023-09-19T16:01:38;21.90;99.90
4530;DHT22;2277;51.626;7.516;2023-09-19T16:04:03;21.80;99.90
4530;DHT22;2277;51.626;7.516;2023-09-19T16:06:30;21.80;99.90
4530;DHT22;2277;51.626;7.516;2023-09-19T16:08:59;21.90;99.90
4530;DHT22;2277;51.626;7.516;2023-09-19T16:11:26;21.90;99.90
4530;DHT22;2277;51.626;7.516;2023-09-19T16:13:53;22.00;99.90
4530;DHT22;2277;51.626;7.516;2023-09-19T16:16:20;22.00;99.90
4530;DHT22;2277;51.626;7.516;2023-09-19T16:18:50;22.00;99.90
4530;DHT22;2277;51.626;7.516;2023-09-19T16:21:16;22.00;99.90
4530;DHT22;2277;51.626;7.516;2023-09-19T16:23:45;21.90;99.90
4530;DHT22;2277;51.626;7.516;2023-09-19T16:26:11;21.90;99.90
4530;DHT22;2277;51.626;7.516;2023-09-19T16:28:39;21.80;99.90
4530;DHT22;2277;51.626;7.516;2023-09-19T16:31:07;21.70;99.90
4530;DHT22;2277;51.626;7.516;2023-09-19T16:33:37;21.70;99.90
4530;DHT22;2277;51.626;7.516;2023-09-19T16:36:12;21.60;99.90
4530;DHT22;2277;51.626;7.516;2023-09-19T16:38:39;21.60;99.90
4530;DHT22;2277;51.626;7.516;2023-09-19T16:41:05;21.50;99.90
4530;DHT22;2277;51.626;7.516;2023-09-19T16:43:32;21.40;99.90
4530;DHT22;2277;51.626;7.516;2023-09-19T16:46:06;21.30;99.90
4530;DHT22;2277;51.626;7.516;2023-09-19T16:48:36;21.40;99.90
4530;DHT22;2277;51.626;7.516;2023-09-19T16:51:04;21.40;99.90
4530;DHT22;2277;51.626;7.516;2023-09-19T16:53:30;21.40;99.90
4530;DHT22;2277;51.626;7.516;2023-09-19T16:56:02;21.30;99.90
4530;DHT22;2277;51.626;7.516;2023-09-19T16:58:28;21.20;99.90
4530;DHT22;2277;51.626;7.516;2023-09-19T17:00:55;21.20;99.90
4530;DHT22;2277;51.626;7.516;2023-09-19T17:03:21;21.30;99.90
4530;DHT22;2277;51.626;7.516;2023-09-19T17:05:48;21.20;99.90